createdAt,value
2018-09-22T00:02:05.570Z,88.26
2018-09-22T00:04:34.076Z,88.01
2018-09-22T00:07:02.567Z,88.34
2018-09-22T00:09:31.166Z,87.89
2018-09-22T00:11:59.702Z,87.57
2018-09-22T00:14:28.210Z,87.55
2018-09-22T00:16:56.939Z,87.72
2018-09-22T00:19:25.539Z,87.85
2018-09-22T00:21:54.191Z,87.63
2018-09-22T00:24:22.713Z,88.22
2018-09-22T00:26:51.265Z,87.54
2018-09-22T00:29:19.834Z,87.82
2018-09-22T00:31:48.413Z,88.14
2018-09-22T00:34:16.970Z,87.81
2018-09-22T00:36:45.486Z,88.25
2018-09-22T00:39:14.027Z,87.89
2018-09-22T00:41:42.630Z,88.30
2018-09-22T00:44:11.217Z,88.16
2018-09-22T00:46:40.055Z,88.17
2018-09-22T00:49:08.711Z,87.73
2018-09-22T00:51:37.236Z,87.81
2018-09-22T00:54:05.808Z,87.76
2018-09-22T00:56:34.361Z,88.02
2018-09-22T00:59:02.935Z,87.66
2018-09-22T01:01:31.734Z,88.35
2018-09-22T01:04:00.351Z,88.30
2018-09-22T01:06:28.878Z,88.23
2018-09-22T01:08:57.422Z,87.86
2018-09-22T01:11:26.007Z,88.07
2018-09-22T01:13:54.594Z,88.19
2018-09-22T01:16:23.158Z,87.84
2018-09-22T01:18:51.760Z,87.60
2018-09-22T01:21:20.315Z,87.83
2018-09-22T01:23:48.874Z,88.28
2018-09-22T01:26:18.267Z,88.44
2018-09-22T01:28:46.877Z,88.35
2018-09-22T01:31:15.414Z,88.25
2018-09-22T01:33:43.891Z,87.62
2018-09-22T01:36:12.466Z,88.35
2018-09-22T01:38:40.994Z,88.16
2018-09-22T01:41:09.523Z,87.80
2018-09-22T01:43:38.701Z,88.23
2018-09-22T01:46:07.251Z,87.67
2018-09-22T01:48:35.806Z,88.23
2018-09-22T01:51:04.331Z,88.36
2018-09-22T01:53:32.840Z,88.21
2018-09-22T01:56:01.345Z,88.39
2018-09-22T01:58:29.887Z,88.05
2018-09-22T02:00:58.478Z,88.58
2018-09-22T02:03:27.000Z,87.57
2018-09-22T02:05:55.592Z,88.27
2018-09-22T02:08:24.103Z,88.13
2018-09-22T02:10:52.597Z,88.09
2018-09-22T02:13:21.232Z,87.84
2018-09-22T02:15:49.779Z,88.48
2018-09-22T02:18:18.399Z,88.44
2018-09-22T02:20:46.958Z,88.01
2018-09-22T02:23:15.470Z,87.89
2018-09-22T02:25:44.096Z,88.31
2018-09-22T02:28:12.688Z,87.83
2018-09-22T02:30:41.224Z,88.41
2018-09-22T02:33:09.876Z,88.40
2018-09-22T02:35:38.464Z,87.81
2018-09-22T02:38:07.054Z,88.04
2018-09-22T02:40:35.632Z,88.45
2018-09-22T02:43:04.196Z,88.10
2018-09-22T02:45:32.754Z,88.29
2018-09-22T02:48:01.348Z,87.79
2018-09-22T02:50:29.956Z,88.26
2018-09-22T02:52:58.533Z,87.77
2018-09-22T02:55:27.039Z,87.88
2018-09-22T02:57:55.620Z,87.79
2018-09-22T03:00:24.156Z,88.25
2018-09-22T03:02:53.800Z,88.39
2018-09-22T03:05:22.451Z,87.73
2018-09-22T03:07:51.303Z,88.56
2018-09-22T03:10:19.977Z,87.71
2018-09-22T03:12:48.563Z,87.87
2018-09-22T03:15:17.256Z,88.44
2018-09-22T03:17:45.819Z,88.10
2018-09-22T03:20:14.380Z,87.83
2018-09-22T03:22:42.950Z,87.88
2018-09-22T03:25:11.549Z,88.07
2018-09-22T03:27:40.108Z,88.22
2018-09-22T03:30:08.756Z,88.52
2018-09-22T03:32:37.203Z,87.98
2018-09-22T03:35:05.754Z,88.51
2018-09-22T03:37:34.324Z,88.30
2018-09-22T03:40:02.900Z,87.87
2018-09-22T03:42:31.468Z,87.75
2018-09-22T03:45:00.042Z,88.14
2018-09-22T03:47:28.605Z,87.70
2018-09-22T03:49:57.159Z,87.79
2018-09-22T03:52:25.698Z,88.03
2018-09-22T03:54:54.340Z,87.93
2018-09-22T03:57:22.883Z,88.61
2018-09-22T03:59:51.397Z,87.85
2018-09-22T04:02:19.926Z,88.25
2018-09-22T04:04:48.510Z,88.00
2018-09-22T04:07:17.103Z,88.32
2018-09-22T04:09:45.664Z,88.20
2018-09-22T04:12:14.218Z,88.08
2018-09-22T04:14:42.880Z,87.95
2018-09-22T04:17:11.449Z,88.28
2018-09-22T04:19:41.658Z,88.22
2018-09-22T04:22:10.238Z,88.10
2018-09-22T04:24:38.844Z,87.91
2018-09-22T04:27:07.510Z,88.19
2018-09-22T04:29:36.097Z,88.11
2018-09-22T04:32:04.587Z,88.35
2018-09-22T04:34:33.205Z,87.68
2018-09-22T04:37:01.737Z,87.83
2018-09-22T04:39:30.224Z,87.83
2018-09-22T04:41:58.816Z,88.40
2018-09-22T04:44:27.342Z,88.17
2018-09-22T04:46:55.871Z,87.48
2018-09-22T04:49:24.428Z,87.68
2018-09-22T04:51:53.019Z,88.25
2018-09-22T04:54:21.530Z,87.58
2018-09-22T04:56:50.037Z,88.40
2018-09-22T04:59:18.578Z,87.88
2018-09-22T05:01:47.167Z,88.16
2018-09-22T05:04:15.771Z,87.63
2018-09-22T05:06:44.270Z,87.73
2018-09-22T05:09:13.422Z,88.01
2018-09-22T05:11:42.097Z,88.28
2018-09-22T05:14:10.718Z,87.77
2018-09-22T05:16:39.238Z,87.95
2018-09-22T05:19:07.850Z,87.71
2018-09-22T05:21:36.389Z,88.14
2018-09-22T05:24:04.951Z,88.38
2018-09-22T05:26:33.461Z,87.59
2018-09-22T05:29:01.963Z,88.00
2018-09-22T05:31:30.491Z,88.26
2018-09-22T05:33:58.975Z,87.84
2018-09-22T05:36:27.479Z,87.65
2018-09-22T05:38:56.007Z,87.65
2018-09-22T05:41:24.540Z,88.30
2018-09-22T05:43:53.030Z,88.08
2018-09-22T05:46:21.571Z,88.15
2018-09-22T05:48:50.091Z,88.23
2018-09-22T05:51:18.615Z,88.15
2018-09-22T05:53:47.196Z,88.26
2018-09-22T05:56:15.732Z,88.05
2018-09-22T05:58:44.256Z,87.44
2018-09-22T06:01:12.773Z,88.24
2018-09-22T06:03:41.458Z,87.95
2018-09-22T06:06:09.996Z,88.08
2018-09-22T06:08:38.760Z,87.70
2018-09-22T06:11:07.266Z,87.97
2018-09-22T06:13:35.870Z,88.24
2018-09-22T06:16:04.435Z,87.63
2018-09-22T06:18:32.989Z,88.10
2018-09-22T06:21:01.494Z,88.11
2018-09-22T06:23:30.105Z,87.46
2018-09-22T06:25:58.687Z,88.28
2018-09-22T06:28:27.298Z,87.71
2018-09-22T06:30:55.836Z,87.72
2018-09-22T06:33:24.351Z,87.88
2018-09-22T06:35:52.926Z,88.24
2018-09-22T06:38:21.486Z,88.15
2018-09-22T06:40:50.007Z,88.35
2018-09-22T06:43:18.586Z,87.74
2018-09-22T06:45:47.245Z,88.23
2018-09-22T06:48:15.814Z,88.02
2018-09-22T06:50:44.551Z,88.12
2018-09-22T06:53:13.063Z,87.46
2018-09-22T06:55:41.582Z,87.61
2018-09-22T06:58:10.155Z,82.90
2018-09-22T07:00:38.768Z,79.05
2018-09-22T07:03:07.425Z,77.85
2018-09-22T07:05:37.150Z,76.42
2018-09-22T07:08:05.726Z,74.46
2018-09-22T07:10:34.207Z,74.97
2018-09-22T07:13:02.854Z,74.48
2018-09-22T07:15:31.327Z,75.59
2018-09-22T07:17:59.802Z,74.51
2018-09-22T07:20:28.420Z,74.71
2018-09-22T07:23:27.493Z,75.29
2018-09-22T07:25:56.030Z,75.65
2018-09-22T07:28:24.496Z,74.91
2018-09-22T07:30:53.015Z,73.69
2018-09-22T07:33:21.484Z,74.45
2018-09-22T07:35:49.949Z,73.48
2018-09-22T07:38:18.428Z,73.80
2018-09-22T07:40:46.900Z,74.97
2018-09-22T07:43:15.364Z,75.22
2018-09-22T07:45:43.926Z,74.79
2018-09-22T07:48:12.391Z,74.79
2018-09-22T07:50:40.893Z,73.91
2018-09-22T07:53:09.389Z,73.93
2018-09-22T07:55:37.890Z,74.46
2018-09-22T07:58:06.462Z,76.13
2018-09-22T08:00:34.981Z,75.86
2018-09-22T08:03:03.507Z,74.68
2018-09-22T08:05:31.973Z,75.83
2018-09-22T08:08:00.442Z,76.57
2018-09-22T08:10:28.970Z,76.76
2018-09-22T08:12:57.445Z,77.65
2018-09-22T08:15:25.906Z,77.46
2018-09-22T08:17:54.383Z,77.87
2018-09-22T08:20:22.883Z,78.43
2018-09-22T08:22:51.353Z,79.29
2018-09-22T08:25:19.822Z,79.01
2018-09-22T08:27:48.310Z,79.32
2018-09-22T08:30:16.777Z,80.63
2018-09-22T08:32:45.247Z,80.55
2018-09-22T08:35:13.739Z,80.20
2018-09-22T08:37:42.237Z,79.58
2018-09-22T08:40:10.818Z,80.11
2018-09-22T08:42:39.329Z,80.15
2018-09-22T08:45:07.852Z,81.51
2018-09-22T08:47:37.110Z,82.05
2018-09-22T08:50:05.694Z,82.10
2018-09-22T08:52:34.128Z,82.20
2018-09-22T08:55:02.602Z,82.27
2018-09-22T08:57:31.091Z,82.92
2018-09-22T09:02:27.060Z,83.05
2018-09-22T09:07:22.998Z,82.69
2018-09-22T09:09:51.491Z,82.81
2018-09-22T09:12:19.973Z,82.75
2018-09-22T09:14:48.470Z,83.67
2018-09-22T09:17:16.933Z,83.49
2018-09-22T09:29:35.199Z,83.75
2018-09-22T09:32:03.722Z,84.03
2018-09-22T09:34:32.306Z,83.41
2018-09-22T09:37:00.808Z,83.82
2018-09-22T09:39:29.286Z,83.70
2018-09-22T09:41:57.756Z,83.67
2018-09-22T09:44:26.228Z,83.46
2018-09-22T09:46:54.719Z,83.44
2018-09-22T09:49:23.173Z,83.69
2018-09-22T09:51:51.672Z,83.48
2018-09-22T09:54:20.172Z,84.05
2018-09-22T09:56:48.656Z,83.55
2018-09-22T09:59:17.147Z,84.14
2018-09-22T10:01:45.619Z,83.74
2018-09-22T10:06:41.579Z,84.32
2018-09-22T10:09:10.642Z,84.38
2018-09-22T10:11:39.210Z,83.98
2018-09-22T10:14:07.786Z,84.47
2018-09-22T10:16:36.443Z,84.03
2018-09-22T10:19:05.176Z,84.04
2018-09-22T10:21:34.400Z,84.13
2018-09-22T10:24:02.989Z,84.21
2018-09-22T10:26:31.542Z,84.05
2018-09-22T10:31:27.691Z,84.22
2018-09-22T10:33:56.425Z,83.91
2018-09-22T10:36:25.145Z,84.79
2018-09-22T10:38:53.784Z,84.31
2018-09-22T10:41:22.322Z,84.85
2018-09-22T10:43:50.826Z,84.24
2018-09-22T10:46:19.365Z,84.51
2018-09-22T10:48:47.935Z,84.42
2018-09-22T10:51:16.590Z,84.58
2018-09-22T10:56:12.582Z,84.76
2018-09-22T10:58:41.113Z,84.48
2018-09-22T11:01:09.631Z,84.48
2018-09-22T11:03:38.197Z,84.32
2018-09-22T11:06:06.865Z,85.10
2018-09-22T11:08:35.384Z,85.07
2018-09-22T11:20:53.872Z,84.54
2018-09-22T11:23:22.372Z,84.45
2018-09-22T11:28:18.265Z,85.03
2018-09-22T11:33:14.163Z,84.75
2018-09-22T11:35:42.655Z,84.82
2018-09-22T11:38:11.156Z,84.80
2018-09-22T11:43:07.178Z,85.19
2018-09-22T11:48:03.076Z,84.75
2018-09-22T11:50:31.542Z,85.12
2018-09-22T11:53:00.043Z,85.47
2018-09-22T12:00:23.410Z,84.94
2018-09-22T12:02:51.895Z,85.15
2018-09-22T12:05:20.407Z,85.10
2018-09-22T12:10:16.311Z,85.26
2018-09-22T12:17:40.183Z,84.78
2018-09-22T12:20:08.650Z,85.50
2018-09-22T12:25:04.563Z,84.95
2018-09-22T12:27:33.037Z,84.77
2018-09-22T12:30:01.516Z,85.44
2018-09-22T12:32:29.992Z,85.04
2018-09-22T12:34:58.492Z,84.93
2018-09-22T12:37:26.963Z,85.25
2018-09-22T12:39:55.438Z,85.32
2018-09-22T12:44:51.344Z,85.79
2018-09-22T12:47:19.823Z,85.50
2018-09-22T12:49:48.316Z,85.49
2018-09-22T12:54:44.256Z,85.69
2018-09-22T12:57:12.831Z,85.66
2018-09-22T13:04:36.186Z,85.35
2018-09-22T13:09:32.123Z,85.58
2018-09-22T13:12:00.611Z,85.25
2018-09-22T13:14:29.084Z,85.26
2018-09-22T13:16:57.553Z,85.84
2018-09-22T13:19:26.035Z,85.83
2018-09-22T13:21:54.502Z,85.18
2018-09-22T13:24:22.979Z,85.60
2018-09-22T13:26:51.514Z,85.21
2018-09-22T13:29:20.033Z,84.24
2018-09-22T13:31:48.502Z,84.49
2018-09-22T13:34:16.972Z,84.58
2018-09-22T13:36:45.450Z,84.24
2018-09-22T13:39:14.049Z,84.89
2018-09-22T13:44:10.628Z,84.58
2018-09-22T13:46:39.219Z,84.84
2018-09-22T13:49:07.706Z,84.56
2018-09-22T13:51:36.182Z,85.09
2018-09-22T13:54:04.673Z,85.29
2018-09-22T13:56:33.155Z,85.29
2018-09-22T13:59:01.646Z,85.40
2018-09-22T14:01:30.123Z,84.79
2018-09-22T14:03:58.601Z,85.46
2018-09-22T14:06:27.088Z,84.32
2018-09-22T14:08:55.569Z,83.81
2018-09-22T14:11:25.232Z,83.59
2018-09-22T14:13:54.370Z,83.75
2018-09-22T14:16:22.858Z,84.56
2018-09-22T14:18:51.326Z,84.14
2018-09-22T14:21:19.857Z,84.76
2018-09-22T14:23:48.383Z,85.08
2018-09-22T14:26:16.872Z,85.10
2018-09-22T14:28:45.395Z,84.69
2018-09-22T14:31:13.894Z,84.72
2018-09-22T14:33:42.450Z,85.27
2018-09-22T14:36:10.975Z,84.70
2018-09-22T14:38:39.448Z,85.19
2018-09-22T14:41:07.922Z,85.35
2018-09-22T14:43:36.491Z,85.36
2018-09-22T14:46:05.008Z,85.20
2018-09-22T14:48:33.532Z,84.88
2018-09-22T14:51:01.999Z,85.47
2018-09-22T14:58:25.579Z,84.98
2018-09-22T15:00:54.045Z,84.71
2018-09-22T15:03:22.526Z,85.43
2018-09-22T15:05:50.995Z,85.19
2018-09-22T15:08:19.642Z,85.31
2018-09-22T15:13:15.649Z,85.35
2018-09-22T15:15:44.123Z,85.42
2018-09-22T15:18:12.618Z,84.57
2018-09-22T15:20:41.140Z,85.05
2018-09-22T15:23:09.681Z,85.21
2018-09-22T15:25:38.290Z,84.85
2018-09-22T15:28:06.763Z,85.14
2018-09-22T15:30:35.384Z,84.90
2018-09-22T15:35:31.590Z,84.16
2018-09-22T15:38:00.135Z,84.71
2018-09-22T15:40:28.697Z,84.63
2018-09-22T15:42:58.346Z,84.13
2018-09-22T15:45:26.957Z,84.83
2018-09-22T15:47:55.605Z,84.58
2018-09-22T15:50:24.806Z,84.39
2018-09-22T15:52:53.310Z,84.58
2018-09-22T15:55:21.856Z,84.54
2018-09-22T15:57:50.399Z,84.51
2018-09-22T16:00:18.887Z,84.47
2018-09-22T16:02:47.478Z,84.63
2018-09-22T16:05:16.012Z,84.45
2018-09-22T16:07:44.514Z,84.33
2018-09-22T16:10:13.104Z,84.08
2018-09-22T16:12:41.631Z,84.47
2018-09-22T16:15:10.159Z,84.55
2018-09-22T16:17:38.641Z,84.42
2018-09-22T16:20:07.207Z,83.95
2018-09-22T16:22:35.750Z,83.95
2018-09-22T16:25:04.271Z,84.30
2018-09-22T16:27:32.743Z,84.05
2018-09-22T16:30:01.304Z,83.28
2018-09-22T16:32:29.778Z,82.45
2018-09-22T16:34:58.287Z,81.58
2018-09-22T16:37:26.763Z,82.40
2018-09-22T16:39:55.255Z,82.08
2018-09-22T16:42:23.779Z,81.92
2018-09-22T16:44:52.255Z,82.63
2018-09-22T16:47:20.730Z,82.16
2018-09-22T16:49:49.262Z,82.71
2018-09-22T16:52:20.171Z,82.07
2018-09-22T16:54:48.737Z,82.26
2018-09-22T16:57:17.275Z,82.29
2018-09-22T16:59:45.794Z,82.30
2018-09-22T17:02:14.311Z,82.18
2018-09-22T17:04:42.811Z,81.31
2018-09-22T17:07:11.290Z,82.28
2018-09-22T17:09:39.774Z,82.07
2018-09-22T17:12:08.274Z,81.79
2018-09-22T17:14:36.747Z,81.50
2018-09-22T17:17:05.235Z,81.89
2018-09-22T17:19:33.730Z,81.90
2018-09-22T17:22:02.203Z,81.87
2018-09-22T17:24:30.670Z,81.75
2018-09-22T17:26:59.134Z,81.64
2018-09-22T17:29:27.623Z,81.53
2018-09-22T17:31:56.102Z,81.45
2018-09-22T17:34:24.682Z,81.22
2018-09-22T17:36:53.158Z,81.19
2018-09-22T17:39:21.649Z,81.27
2018-09-22T17:41:50.159Z,81.75
2018-09-22T17:44:18.645Z,80.45
2018-09-22T17:46:47.127Z,79.28
2018-09-22T17:49:15.604Z,79.63
2018-09-22T17:51:44.067Z,80.03
2018-09-22T17:54:12.576Z,79.59
2018-09-22T17:56:41.046Z,80.00
2018-09-22T17:59:09.528Z,80.56
2018-09-22T18:01:37.995Z,80.25
2018-09-22T18:04:06.471Z,80.58
2018-09-22T18:06:34.975Z,81.42
2018-09-22T18:09:03.647Z,81.03
2018-09-22T18:11:32.122Z,81.29
2018-09-22T18:14:00.607Z,81.77
2018-09-22T18:16:29.095Z,82.02
2018-09-22T18:18:57.580Z,81.94
2018-09-22T18:21:26.141Z,81.98
2018-09-22T18:23:54.639Z,82.04
2018-09-22T18:26:23.180Z,82.18
2018-09-22T18:28:51.691Z,82.19
2018-09-22T18:31:20.189Z,81.88
2018-09-22T18:33:48.711Z,81.96
2018-09-22T18:36:17.239Z,82.30
2018-09-22T18:38:45.744Z,82.06
2018-09-22T18:41:14.266Z,82.03
2018-09-22T18:43:42.761Z,82.18
2018-09-22T18:48:38.688Z,82.15
2018-09-22T18:51:07.330Z,82.44
2018-09-22T18:53:35.845Z,82.65
2018-09-22T18:56:05.664Z,82.21
2018-09-22T18:58:34.206Z,82.27
2018-09-22T19:05:57.838Z,82.05
2018-09-22T19:08:26.441Z,82.96
2018-09-22T19:10:55.011Z,82.24
2018-09-22T19:13:27.111Z,82.94
2018-09-22T19:18:31.872Z,82.64
2018-09-22T19:22:03.274Z,82.97
2018-09-22T19:24:50.948Z,83.03
2018-09-22T19:28:26.308Z,83.04
2018-09-22T19:30:56.983Z,83.12
2018-09-22T19:33:31.237Z,83.18
2018-09-22T19:36:06.182Z,82.97
2018-09-22T19:38:42.776Z,82.64
2018-09-22T19:41:17.554Z,82.78
2018-09-22T19:44:04.703Z,83.13
2018-09-22T19:46:41.015Z,83.04
2018-09-22T19:49:16.255Z,82.69
2018-09-22T19:51:49.691Z,83.22
2018-09-22T19:54:18.352Z,82.92
2018-09-22T19:56:46.911Z,82.84
2018-09-22T19:59:15.478Z,82.84
2018-09-22T20:01:44.110Z,83.31
2018-09-22T20:04:12.716Z,82.86
2018-09-22T20:06:41.218Z,82.95
2018-09-22T20:09:09.796Z,83.36
2018-09-22T20:11:38.407Z,82.91
2018-09-22T20:14:07.084Z,82.84
2018-09-22T20:16:36.441Z,82.84
2018-09-22T20:19:05.005Z,83.43
2018-09-22T20:21:33.638Z,83.42
2018-09-22T20:24:02.344Z,82.90
2018-09-22T20:26:30.979Z,83.34
2018-09-22T20:28:59.523Z,83.28
2018-09-22T20:31:28.156Z,83.63
2018-09-22T20:33:56.814Z,83.63
2018-09-22T20:36:25.469Z,83.47
2018-09-22T20:38:54.325Z,83.18
2018-09-22T20:41:23.762Z,83.15
2018-09-22T20:43:52.374Z,83.72
2018-09-22T20:46:22.082Z,83.33
2018-09-22T20:48:50.737Z,83.58
2018-09-22T20:51:19.259Z,83.81
2018-09-22T20:53:47.825Z,83.55
2018-09-22T20:56:16.420Z,83.32
2018-09-22T20:58:45.026Z,83.12
2018-09-22T21:01:13.578Z,83.06
2018-09-22T21:03:42.122Z,83.55
2018-09-22T21:06:10.658Z,83.69
2018-09-22T21:08:39.263Z,83.53
2018-09-22T21:11:08.618Z,83.60
2018-09-22T21:13:37.323Z,83.47
2018-09-22T21:16:05.915Z,83.57
2018-09-22T21:18:34.475Z,83.93
2018-09-22T21:21:03.049Z,83.40
2018-09-22T21:23:31.626Z,83.44
2018-09-22T21:26:00.166Z,83.21
2018-09-22T21:28:28.754Z,83.68
2018-09-22T21:30:57.359Z,83.77
2018-09-22T21:33:25.944Z,83.85
2018-09-22T21:35:54.561Z,83.54
2018-09-22T21:38:23.122Z,83.78
2018-09-22T21:40:51.702Z,83.80
2018-09-22T21:43:20.516Z,83.78
2018-09-22T21:45:49.087Z,83.77
2018-09-22T21:48:17.699Z,83.80
2018-09-22T21:50:46.284Z,83.55
2018-09-22T21:53:14.826Z,84.06
2018-09-22T21:55:43.346Z,83.88
2018-09-22T21:58:11.963Z,83.78
2018-09-22T22:00:40.513Z,83.31
2018-09-22T22:03:09.074Z,83.33
2018-09-22T22:05:37.587Z,83.54
2018-09-22T22:08:06.202Z,83.86
2018-09-22T22:10:34.753Z,83.29
2018-09-22T22:13:03.376Z,84.07
2018-09-22T22:15:31.956Z,83.94
2018-09-22T22:18:00.612Z,83.92
2018-09-22T22:20:29.142Z,83.79
2018-09-22T22:22:57.687Z,84.08
2018-09-22T22:25:27.704Z,84.14
2018-09-22T22:27:56.267Z,84.14
2018-09-22T22:30:24.951Z,83.63
2018-09-22T22:32:53.555Z,84.25
2018-09-22T22:35:22.203Z,84.20
2018-09-22T22:37:50.805Z,83.54
2018-09-22T22:40:19.935Z,84.04
2018-09-22T22:42:48.463Z,84.33
2018-09-22T22:45:17.093Z,84.04
2018-09-22T22:47:45.664Z,84.40
2018-09-22T22:50:14.236Z,84.14
2018-09-22T22:52:42.816Z,84.11
2018-09-22T22:55:11.357Z,83.82
2018-09-22T22:57:39.993Z,83.67
2018-09-22T23:00:08.738Z,83.97
2018-09-22T23:02:38.363Z,83.79
2018-09-22T23:05:06.978Z,84.31
2018-09-22T23:07:35.577Z,83.69
2018-09-22T23:10:04.179Z,84.08
2018-09-22T23:12:32.767Z,83.98
2018-09-22T23:15:01.488Z,84.41
2018-09-22T23:17:30.047Z,84.38
2018-09-22T23:19:58.659Z,84.41
2018-09-22T23:22:27.227Z,84.32
2018-09-22T23:24:55.828Z,83.92
2018-09-22T23:27:24.382Z,84.39
2018-09-22T23:29:53.167Z,84.40
2018-09-22T23:32:21.715Z,84.22
2018-09-22T23:34:50.262Z,84.49
2018-09-22T23:37:18.837Z,83.97
2018-09-22T23:39:47.326Z,83.83
2018-09-22T23:42:16.439Z,84.46
2018-09-22T23:44:45.657Z,84.71
2018-09-22T23:47:14.206Z,84.15
2018-09-22T23:49:42.729Z,84.32
2018-09-22T23:52:11.345Z,84.18
2018-09-22T23:54:39.906Z,84.34
2018-09-22T23:57:08.414Z,84.47
2018-09-22T23:59:36.972Z,84.65
